sensor_id;sensor_type;location;lat;lon;timestamp;pressure;altitude;pressure_sealevel;temperature;humidity
60258;BME280;46115;44.484;11.314;2023-07-20T00:03:40;99651.66;;;25.79;66.20
60258;BME280;46115;44.484;11.314;2023-07-20T00:07:43;99642.34;;;26.09;65.53
60258;BME280;46115;44.484;11.314;2023-07-20T00:11:49;99627.88;;;25.60;67.97
60258;BME280;46115;44.484;11.314;2023-07-20T00:15:54;99627.47;;;25.77;67.73
60258;BME280;46115;44.484;11.314;2023-07-20T00:19:56;99610.56;;;25.97;68.64
60258;BME280;46115;44.484;11.314;2023-07-20T00:23:59;99606.72;;;26.06;69.37
60258;BME280;46115;44.484;11.314;2023-07-20T00:28:01;99590.19;;;26.29;70.33
60258;BME280;46115;44.484;11.314;2023-07-20T00:32:06;99571.19;;;26.22;70.51
60258;BME280;46115;44.484;11.314;2023-07-20T00:36:09;99566.91;;;26.69;69.00
60258;BME280;46115;44.484;11.314;2023-07-20T00:40:11;99586.41;;;26.86;70.02
60258;BME280;46115;44.484;11.314;2023-07-20T00:44:14;99608.41;;;27.04;70.67
60258;BME280;46115;44.484;11.314;2023-07-20T00:48:18;99620.91;;;27.59;67.42
60258;BME280;46115;44.484;11.314;2023-07-20T00:52:21;99629.09;;;27.66;65.50
60258;BME280;46115;44.484;11.314;2023-07-20T00:56:26;99638.72;;;27.69;63.89
60258;BME280;46115;44.484;11.314;2023-07-20T01:00:29;99645.84;;;27.89;61.09
60258;BME280;46115;44.484;11.314;2023-07-20T01:04:35;99646.06;;;27.88;60.12
60258;BME280;46115;44.484;11.314;2023-07-20T01:08:44;99626.97;;;27.00;61.52
60258;BME280;46115;44.484;11.314;2023-07-20T01:12:52;99621.66;;;27.27;61.53
60258;BME280;46115;44.484;11.314;2023-07-20T01:16:55;99611.66;;;27.41;61.97
60258;BME280;46115;44.484;11.314;2023-07-20T01:21:01;99642.72;;;27.92;60.05
60258;BME280;46115;44.484;11.314;2023-07-20T01:25:21;99676.66;;;27.55;57.28
60258;BME280;46115;44.484;11.314;2023-07-20T01:29:43;99659.00;;;27.25;56.23
60258;BME280;46115;44.484;11.314;2023-07-20T01:33:58;99662.19;;;26.66;57.40
60258;BME280;46115;44.484;11.314;2023-07-20T01:38:02;99663.38;;;26.85;56.08
60258;BME280;46115;44.484;11.314;2023-07-20T01:42:06;99656.78;;;26.66;56.21
60258;BME280;46115;44.484;11.314;2023-07-20T01:46:08;99663.13;;;27.08;55.17
60258;BME280;46115;44.484;11.314;2023-07-20T01:50:12;99662.41;;;26.99;55.33
60258;BME280;46115;44.484;11.314;2023-07-20T01:54:15;99664.81;;;26.81;56.12
60258;BME280;46115;44.484;11.314;2023-07-20T01:58:17;99666.13;;;26.98;56.15
60258;BME280;46115;44.484;11.314;2023-07-20T02:02:20;99677.16;;;26.34;58.41
60258;BME280;46115;44.484;11.314;2023-07-20T02:06:24;99695.31;;;26.61;57.74
60258;BME280;46115;44.484;11.314;2023-07-20T02:10:26;99698.69;;;25.99;59.15
60258;BME280;46115;44.484;11.314;2023-07-20T02:14:29;99694.13;;;26.00;59.24
60258;BME280;46115;44.484;11.314;2023-07-20T02:18:32;99680.25;;;26.31;57.84
60258;BME280;46115;44.484;11.314;2023-07-20T02:22:36;99697.22;;;25.97;59.20
60258;BME280;46115;44.484;11.314;2023-07-20T02:26:39;99686.38;;;25.75;59.63
60258;BME280;46115;44.484;11.314;2023-07-20T02:30:42;99708.63;;;25.92;59.12
60258;BME280;46115;44.484;11.314;2023-07-20T02:34:44;99707.78;;;25.92;59.02
60258;BME280;46115;44.484;11.314;2023-07-20T02:38:48;99704.69;;;25.73;59.52
60258;BME280;46115;44.484;11.314;2023-07-20T02:42:51;99721.94;;;25.58;60.75
60258;BME280;46115;44.484;11.314;2023-07-20T02:46:53;99718.28;;;25.65;60.11
60258;BME280;46115;44.484;11.314;2023-07-20T02:50:56;99719.94;;;25.30;61.35
60258;BME280;46115;44.484;11.314;2023-07-20T02:55:00;99717.78;;;25.26;62.08
60258;BME280;46115;44.484;11.314;2023-07-20T02:59:02;99714.56;;;25.01;62.19
60258;BME280;46115;44.484;11.314;2023-07-20T03:03:05;99718.63;;;25.41;61.63
60258;BME280;46115;44.484;11.314;2023-07-20T03:07:10;99717.63;;;25.12;62.21
60258;BME280;46115;44.484;11.314;2023-07-20T03:11:15;99739.13;;;25.50;61.40
60258;BME280;46115;44.484;11.314;2023-07-20T03:15:17;99711.06;;;24.92;63.31
60258;BME280;46115;44.484;11.314;2023-07-20T03:19:20;99710.91;;;24.56;64.73
60258;BME280;46115;44.484;11.314;2023-07-20T03:23:22;99716.66;;;24.76;63.92
60258;BME280;46115;44.484;11.314;2023-07-20T03:27:26;99703.19;;;24.53;64.42
60258;BME280;46115;44.484;11.314;2023-07-20T03:31:30;99712.97;;;24.08;66.18
60258;BME280;46115;44.484;11.314;2023-07-20T03:35:32;99708.13;;;24.04;66.21
60258;BME280;46115;44.484;11.314;2023-07-20T03:39:35;99692.13;;;24.02;66.50
60258;BME280;46115;44.484;11.314;2023-07-20T03:43:40;99696.66;;;23.79;66.66
60258;BME280;46115;44.484;11.314;2023-07-20T03:47:42;99681.66;;;23.45;68.22
60258;BME280;46115;44.484;11.314;2023-07-20T03:51:45;99681.69;;;23.37;68.06
60258;BME280;46115;44.484;11.314;2023-07-20T03:55:48;99678.88;;;23.30;68.49
60258;BME280;46115;44.484;11.314;2023-07-20T03:59:52;99681.69;;;23.37;68.06
60258;BME280;46115;44.484;11.314;2023-07-20T04:03:57;99681.34;;;23.40;68.02
60258;BME280;46115;44.484;11.314;2023-07-20T04:08:00;99684.53;;;23.75;67.22
60258;BME280;46115;44.484;11.314;2023-07-20T04:12:03;99670.88;;;23.06;69.36
60258;BME280;46115;44.484;11.314;2023-07-20T04:16:07;99675.16;;;23.31;68.86
60258;BME280;46115;44.484;11.314;2023-07-20T04:20:09;99655.16;;;23.49;67.34
60258;BME280;46115;44.484;11.314;2023-07-20T04:24:12;99690.44;;;23.39;68.47
60258;BME280;46115;44.484;11.314;2023-07-20T04:28:15;99687.28;;;23.67;67.39
60258;BME280;46115;44.484;11.314;2023-07-20T04:32:23;99683.34;;;23.77;67.06
60258;BME280;46115;44.484;11.314;2023-07-20T04:36:26;99674.41;;;23.46;68.58
60258;BME280;46115;44.484;11.314;2023-07-20T04:40:29;99688.47;;;23.95;67.34
60258;BME280;46115;44.484;11.314;2023-07-20T04:44:33;99695.03;;;23.92;67.36
60258;BME280;46115;44.484;11.314;2023-07-20T04:48:37;99695.59;;;24.11;66.76
60258;BME280;46115;44.484;11.314;2023-07-20T04:52:39;99690.84;;;24.36;66.47
60258;BME280;46115;44.484;11.314;2023-07-20T04:56:41;99692.56;;;24.51;66.13
60258;BME280;46115;44.484;11.314;2023-07-20T05:00:47;99702.19;;;24.83;64.95
60258;BME280;46115;44.484;11.314;2023-07-20T05:04:51;99699.25;;;25.23;64.14
60258;BME280;46115;44.484;11.314;2023-07-20T05:08:54;99698.34;;;25.66;63.34
60258;BME280;46115;44.484;11.314;2023-07-20T05:12:56;99704.84;;;26.51;61.07
60258;BME280;46115;44.484;11.314;2023-07-20T05:16:59;99705.41;;;26.25;61.52
60258;BME280;46115;44.484;11.314;2023-07-20T05:21:03;99692.94;;;27.08;59.88
60258;BME280;46115;44.484;11.314;2023-07-20T05:25:07;99700.53;;;27.25;59.51
60258;BME280;46115;44.484;11.314;2023-07-20T05:29:10;99688.63;;;26.57;60.81
60258;BME280;46115;44.484;11.314;2023-07-20T05:33:12;99697.34;;;25.89;63.15
60258;BME280;46115;44.484;11.314;2023-07-20T05:37:16;99702.25;;;26.00;63.47
60258;BME280;46115;44.484;11.314;2023-07-20T05:41:18;99708.09;;;26.39;62.74
60258;BME280;46115;44.484;11.314;2023-07-20T05:45:20;99709.47;;;26.85;61.17
60258;BME280;46115;44.484;11.314;2023-07-20T05:49:23;99711.75;;;27.09;60.97
60258;BME280;46115;44.484;11.314;2023-07-20T05:53:26;99695.44;;;27.50;59.73
60258;BME280;46115;44.484;11.314;2023-07-20T05:57:29;99687.56;;;27.62;59.50
60258;BME280;46115;44.484;11.314;2023-07-20T06:01:31;99720.31;;;27.60;59.74
60258;BME280;46115;44.484;11.314;2023-07-20T06:05:34;99728.47;;;27.60;60.53
60258;BME280;46115;44.484;11.314;2023-07-20T06:09:37;99728.06;;;28.24;58.22
60258;BME280;46115;44.484;11.314;2023-07-20T06:13:40;99724.09;;;28.40;58.91
60258;BME280;46115;44.484;11.314;2023-07-20T06:17:44;99731.22;;;28.48;57.23
60258;BME280;46115;44.484;11.314;2023-07-20T06:21:46;99735.78;;;28.41;55.43
60258;BME280;46115;44.484;11.314;2023-07-20T06:25:50;99756.72;;;28.67;55.36
60258;BME280;46115;44.484;11.314;2023-07-20T06:29:52;99754.81;;;29.07;54.74
60258;BME280;46115;44.484;11.314;2023-07-20T06:33:54;99752.75;;;28.96;53.48
60258;BME280;46115;44.484;11.314;2023-07-20T06:37:57;99762.50;;;29.56;53.69
60258;BME280;46115;44.484;11.314;2023-07-20T06:42:01;99758.31;;;29.54;52.32
60258;BME280;46115;44.484;11.314;2023-07-20T06:46:05;99758.44;;;29.72;51.32
60258;BME280;46115;44.484;11.314;2023-07-20T06:50:08;99760.22;;;29.91;51.42
60258;BME280;46115;44.484;11.314;2023-07-20T06:54:11;99770.56;;;30.21;51.48
60258;BME280;46115;44.484;11.314;2023-07-20T06:58:14;99755.56;;;30.36;51.08
60258;BME280;46115;44.484;11.314;2023-07-20T07:02:18;99779.84;;;30.76;49.36
60258;BME280;46115;44.484;11.314;2023-07-20T07:06:20;99784.97;;;30.66;49.26
60258;BME280;46115;44.484;11.314;2023-07-20T07:10:23;99781.72;;;29.68;51.01
60258;BME280;46115;44.484;11.314;2023-07-20T07:14:27;99782.41;;;30.71;49.55
60258;BME280;46115;44.484;11.314;2023-07-20T07:18:29;99783.78;;;31.30;48.33
60258;BME280;46115;44.484;11.314;2023-07-20T07:22:32;99787.63;;;30.72;49.30
60258;BME280;46115;44.484;11.314;2023-07-20T07:26:34;99778.00;;;31.93;48.15
60258;BME280;46115;44.484;11.314;2023-07-20T07:30:38;99776.50;;;31.60;46.49
60258;BME280;46115;44.484;11.314;2023-07-20T07:34:40;99793.09;;;31.41;48.30
60258;BME280;46115;44.484;11.314;2023-07-20T07:38:42;99788.53;;;31.34;48.36
60258;BME280;46115;44.484;11.314;2023-07-20T07:42:45;99778.59;;;31.40;48.85
60258;BME280;46115;44.484;11.314;2023-07-20T07:46:49;99785.00;;;31.09;48.63
60258;BME280;46115;44.484;11.314;2023-07-20T07:50:51;99789.81;;;30.89;49.62
60258;BME280;46115;44.484;11.314;2023-07-20T07:54:53;99790.44;;;30.91;50.26
60258;BME280;46115;44.484;11.314;2023-07-20T07:58:56;99794.09;;;31.83;49.17
60258;BME280;46115;44.484;11.314;2023-07-20T08:03:00;99794.69;;;31.85;48.77
60258;BME280;46115;44.484;11.314;2023-07-20T08:07:03;99796.00;;;32.12;47.72
60258;BME280;46115;44.484;11.314;2023-07-20T08:11:06;99792.94;;;30.92;50.65
60258;BME280;46115;44.484;11.314;2023-07-20T08:15:11;99791.13;;;31.84;49.09
60258;BME280;46115;44.484;11.314;2023-07-20T08:19:15;99787.34;;;32.45;47.77
60258;BME280;46115;44.484;11.314;2023-07-20T08:23:17;99791.66;;;33.41;45.38
60258;BME280;46115;44.484;11.314;2023-07-20T08:27:19;99787.34;;;33.45;45.52
60258;BME280;46115;44.484;11.314;2023-07-20T08:31:22;99782.13;;;33.09;46.48
60258;BME280;46115;44.484;11.314;2023-07-20T08:35:25;99767.50;;;32.38;48.85
60258;BME280;46115;44.484;11.314;2023-07-20T08:39:28;99768.34;;;32.20;49.12
60258;BME280;46115;44.484;11.314;2023-07-20T08:43:31;99773.75;;;33.51;46.40
60258;BME280;46115;44.484;11.314;2023-07-20T08:47:33;99775.66;;;34.02;45.76
60258;BME280;46115;44.484;11.314;2023-07-20T08:51:37;99768.66;;;33.07;47.99
60258;BME280;46115;44.484;11.314;2023-07-20T08:55:42;99751.41;;;33.07;46.90
60258;BME280;46115;44.484;11.314;2023-07-20T08:59:46;99768.22;;;34.43;45.23
60258;BME280;46115;44.484;11.314;2023-07-20T09:03:49;99766.50;;;33.44;47.60
60258;BME280;46115;44.484;11.314;2023-07-20T09:07:53;99772.81;;;34.70;45.03
60258;BME280;46115;44.484;11.314;2023-07-20T09:11:55;99777.28;;;34.60;46.35
60258;BME280;46115;44.484;11.314;2023-07-20T09:15:58;99772.25;;;35.24;44.58
60258;BME280;46115;44.484;11.314;2023-07-20T09:20:03;99762.28;;;35.56;43.84
60258;BME280;46115;44.484;11.314;2023-07-20T09:24:10;99767.13;;;34.77;44.62
60258;BME280;46115;44.484;11.314;2023-07-20T09:28:13;99762.66;;;35.05;44.77
60258;BME280;46115;44.484;11.314;2023-07-20T09:32:18;99750.19;;;34.18;45.40
60258;BME280;46115;44.484;11.314;2023-07-20T09:36:21;99756.78;;;33.77;45.93
60258;BME280;46115;44.484;11.314;2023-07-20T09:40:26;99757.63;;;34.68;45.74
60258;BME280;46115;44.484;11.314;2023-07-20T09:44:28;99749.50;;;35.45;43.54
60258;BME280;46115;44.484;11.314;2023-07-20T09:48:31;99766.25;;;35.27;43.83
60258;BME280;46115;44.484;11.314;2023-07-20T09:52:34;99766.09;;;35.33;42.90
60258;BME280;46115;44.484;11.314;2023-07-20T09:56:39;99764.66;;;35.31;44.29
60258;BME280;46115;44.484;11.314;2023-07-20T10:00:43;99762.59;;;35.21;44.26
60258;BME280;46115;44.484;11.314;2023-07-20T10:04:49;99759.72;;;34.61;44.35
60258;BME280;46115;44.484;11.314;2023-07-20T10:08:56;99753.25;;;34.05;45.74
60258;BME280;46115;44.484;11.314;2023-07-20T10:13:04;99741.66;;;33.74;46.51
60258;BME280;46115;44.484;11.314;2023-07-20T10:17:11;99751.00;;;34.97;44.65
60258;BME280;46115;44.484;11.314;2023-07-20T10:21:17;99749.41;;;35.01;44.70
60258;BME280;46115;44.484;11.314;2023-07-20T10:25:20;99748.78;;;34.32;45.86
60258;BME280;46115;44.484;11.314;2023-07-20T10:29:25;99747.84;;;34.72;45.17
60258;BME280;46115;44.484;11.314;2023-07-20T10:33:29;99745.44;;;34.30;45.91
60258;BME280;46115;44.484;11.314;2023-07-20T10:37:48;99751.75;;;34.31;45.33
60258;BME280;46115;44.484;11.314;2023-07-20T10:41:59;99742.41;;;33.98;44.06
60258;BME280;46115;44.484;11.314;2023-07-20T10:46:04;99734.28;;;33.63;46.15
60258;BME280;46115;44.484;11.314;2023-07-20T10:50:06;99730.56;;;34.26;45.90
60258;BME280;46115;44.484;11.314;2023-07-20T10:54:33;99730.41;;;34.16;45.92
60258;BME280;46115;44.484;11.314;2023-07-20T10:58:35;99722.41;;;34.43;46.08
60258;BME280;46115;44.484;11.314;2023-07-20T11:02:46;99713.34;;;34.14;45.67
60258;BME280;46115;44.484;11.314;2023-07-20T11:06:55;99731.53;;;34.49;45.48
60258;BME280;46115;44.484;11.314;2023-07-20T11:11:21;99723.16;;;34.10;45.53
60258;BME280;46115;44.484;11.314;2023-07-20T11:15:24;99718.66;;;34.04;44.49
60258;BME280;46115;44.484;11.314;2023-07-20T11:19:28;99712.84;;;34.17;46.89
60258;BME280;46115;44.484;11.314;2023-07-20T11:23:31;99701.44;;;33.92;46.14
60258;BME280;46115;44.484;11.314;2023-07-20T11:27:44;99680.22;;;33.59;47.10
60258;BME280;46115;44.484;11.314;2023-07-20T11:31:47;99694.63;;;33.94;47.01
60258;BME280;46115;44.484;11.314;2023-07-20T11:35:51;99691.25;;;34.04;47.59
60258;BME280;46115;44.484;11.314;2023-07-20T11:39:55;99687.94;;;34.19;47.33
60258;BME280;46115;44.484;11.314;2023-07-20T11:43:58;99692.50;;;34.13;46.03
60258;BME280;46115;44.484;11.314;2023-07-20T11:48:00;99677.19;;;33.43;47.34
60258;BME280;46115;44.484;11.314;2023-07-20T11:52:05;99677.34;;;33.94;47.37
60258;BME280;46115;44.484;11.314;2023-07-20T11:56:08;99678.03;;;33.72;46.72
60258;BME280;46115;44.484;11.314;2023-07-20T12:00:11;99676.53;;;34.10;46.53
60258;BME280;46115;44.484;11.314;2023-07-20T12:04:17;99650.94;;;34.21;45.76
60258;BME280;46115;44.484;11.314;2023-07-20T12:08:20;99666.63;;;34.37;45.99
60258;BME280;46115;44.484;11.314;2023-07-20T12:12:25;99666.13;;;34.40;46.55
60258;BME280;46115;44.484;11.314;2023-07-20T12:16:28;99654.03;;;33.79;46.52
60258;BME280;46115;44.484;11.314;2023-07-20T12:20:32;99650.69;;;34.06;45.02
60258;BME280;46115;44.484;11.314;2023-07-20T12:24:37;99645.59;;;33.98;46.06
60258;BME280;46115;44.484;11.314;2023-07-20T12:28:40;99637.41;;;33.29;48.46
60258;BME280;46115;44.484;11.314;2023-07-20T12:32:42;99635.09;;;33.09;47.36
60258;BME280;46115;44.484;11.314;2023-07-20T12:36:45;99635.72;;;33.97;45.68
60258;BME280;46115;44.484;11.314;2023-07-20T12:40:49;99629.00;;;34.04;45.61
60258;BME280;46115;44.484;11.314;2023-07-20T12:44:52;99620.41;;;33.84;45.30
60258;BME280;46115;44.484;11.314;2023-07-20T12:48:55;99626.50;;;34.20;44.85
60258;BME280;46115;44.484;11.314;2023-07-20T12:52:57;99625.22;;;34.39;44.13
60258;BME280;46115;44.484;11.314;2023-07-20T12:57:01;99619.84;;;34.32;44.06
60258;BME280;46115;44.484;11.314;2023-07-20T13:01:04;99615.22;;;34.16;44.44
60258;BME280;46115;44.484;11.314;2023-07-20T13:05:07;99609.00;;;34.04;45.40
60258;BME280;46115;44.484;11.314;2023-07-20T13:09:09;99604.75;;;34.13;45.99
60258;BME280;46115;44.484;11.314;2023-07-20T13:13:13;99598.66;;;34.28;45.77
60258;BME280;46115;44.484;11.314;2023-07-20T13:17:15;99599.84;;;34.15;46.17
60258;BME280;46115;44.484;11.314;2023-07-20T13:21:17;99592.09;;;34.29;45.76
60258;BME280;46115;44.484;11.314;2023-07-20T13:25:24;99582.91;;;34.35;43.60
60258;BME280;46115;44.484;11.314;2023-07-20T13:29:27;99584.72;;;34.46;43.22
60258;BME280;46115;44.484;11.314;2023-07-20T13:33:30;99588.25;;;33.79;44.35
60258;BME280;46115;44.484;11.314;2023-07-20T13:37:32;99585.00;;;34.33;43.73
60258;BME280;46115;44.484;11.314;2023-07-20T13:41:34;99564.03;;;34.38;43.78
60258;BME280;46115;44.484;11.314;2023-07-20T13:45:38;99568.75;;;34.43;44.32
60258;BME280;46115;44.484;11.314;2023-07-20T13:49:41;99572.28;;;34.60;43.55
60258;BME280;46115;44.484;11.314;2023-07-20T13:53:45;99562.53;;;33.97;44.78
60258;BME280;46115;44.484;11.314;2023-07-20T13:57:48;99548.06;;;34.19;45.35
60258;BME280;46115;44.484;11.314;2023-07-20T14:01:52;99552.47;;;34.20;45.35
60258;BME280;46115;44.484;11.314;2023-07-20T14:05:55;99548.91;;;34.02;45.35
60258;BME280;46115;44.484;11.314;2023-07-20T14:09:58;99547.34;;;34.06;45.23
60258;BME280;46115;44.484;11.314;2023-07-20T14:14:00;99539.69;;;33.92;44.88
60258;BME280;46115;44.484;11.314;2023-07-20T14:18:04;99542.31;;;34.20;45.17
60258;BME280;46115;44.484;11.314;2023-07-20T14:22:07;99531.34;;;34.20;44.78
60258;BME280;46115;44.484;11.314;2023-07-20T14:26:09;99537.41;;;33.72;45.64
60258;BME280;46115;44.484;11.314;2023-07-20T14:30:12;99534.84;;;33.65;45.38
60258;BME280;46115;44.484;11.314;2023-07-20T14:34:16;99538.53;;;33.88;45.43
60258;BME280;46115;44.484;11.314;2023-07-20T14:38:19;99476.28;;;33.71;45.21
60258;BME280;46115;44.484;11.314;2023-07-20T14:42:21;99525.59;;;33.26;46.47
60258;BME280;46115;44.484;11.314;2023-07-20T14:46:23;99528.91;;;33.11;46.52
60258;BME280;46115;44.484;11.314;2023-07-20T14:50:27;99522.56;;;33.68;46.10
60258;BME280;46115;44.484;11.314;2023-07-20T14:54:29;99526.97;;;33.86;46.18
60258;BME280;46115;44.484;11.314;2023-07-20T14:58:32;99515.56;;;33.60;46.62
60258;BME280;46115;44.484;11.314;2023-07-20T15:02:34;99520.56;;;33.97;45.75
60258;BME280;46115;44.484;11.314;2023-07-20T15:06:38;99522.72;;;33.78;46.26
60258;BME280;46115;44.484;11.314;2023-07-20T15:10:40;99530.25;;;33.54;46.66
60258;BME280;46115;44.484;11.314;2023-07-20T15:14:43;99515.22;;;33.57;46.75
60258;BME280;46115;44.484;11.314;2023-07-20T15:18:46;99508.44;;;33.93;45.77
60258;BME280;46115;44.484;11.314;2023-07-20T15:22:50;99513.41;;;34.13;45.61
60258;BME280;46115;44.484;11.314;2023-07-20T15:26:52;99501.63;;;34.12;45.74
60258;BME280;46115;44.484;11.314;2023-07-20T15:30:59;99498.81;;;34.07;46.55
60258;BME280;46115;44.484;11.314;2023-07-20T15:35:02;99499.22;;;33.82;45.74
60258;BME280;46115;44.484;11.314;2023-07-20T15:39:06;99485.25;;;33.50;47.22
60258;BME280;46115;44.484;11.314;2023-07-20T15:43:08;99490.16;;;33.65;46.04
60258;BME280;46115;44.484;11.314;2023-07-20T15:47:11;99479.69;;;33.78;46.54
60258;BME280;46115;44.484;11.314;2023-07-20T15:51:13;99484.03;;;33.29;47.32
60258;BME280;46115;44.484;11.314;2023-07-20T15:55:17;99485.25;;;33.50;46.59
60258;BME280;46115;44.484;11.314;2023-07-20T15:59:19;99472.38;;;33.51;46.61
60258;BME280;46115;44.484;11.314;2023-07-20T16:03:22;99484.00;;;33.41;47.29
60258;BME280;46115;44.484;11.314;2023-07-20T16:07:25;99475.22;;;33.39;46.39
60258;BME280;46115;44.484;11.314;2023-07-20T16:11:29;99469.97;;;33.37;46.83
60258;BME280;46115;44.484;11.314;2023-07-20T16:15:31;99456.84;;;33.56;46.87
60258;BME280;46115;44.484;11.314;2023-07-20T16:19:34;99460.88;;;33.65;46.96
60258;BME280;46115;44.484;11.314;2023-07-20T16:23:36;99457.88;;;33.67;46.97
60258;BME280;46115;44.484;11.314;2023-07-20T16:27:40;99457.69;;;33.40;47.47
60258;BME280;46115;44.484;11.314;2023-07-20T16:31:43;99457.44;;;33.58;46.18
60258;BME280;46115;44.484;11.314;2023-07-20T16:35:45;99447.53;;;32.95;47.57
60258;BME280;46115;44.484;11.314;2023-07-20T16:39:50;99454.91;;;33.23;47.14
60258;BME280;46115;44.484;11.314;2023-07-20T16:43:54;99447.69;;;33.17;47.52
60258;BME280;46115;44.484;11.314;2023-07-20T16:47:56;99445.50;;;33.31;47.62
60258;BME280;46115;44.484;11.314;2023-07-20T16:51:59;99448.06;;;33.37;47.77
60258;BME280;46115;44.484;11.314;2023-07-20T16:56:01;99443.78;;;33.30;48.32
60258;BME280;46115;44.484;11.314;2023-07-20T17:00:06;99436.47;;;33.02;49.20
60258;BME280;46115;44.484;11.314;2023-07-20T17:04:11;99436.22;;;33.20;48.41
60258;BME280;46115;44.484;11.314;2023-07-20T17:08:16;99440.28;;;33.17;49.15
60258;BME280;46115;44.484;11.314;2023-07-20T17:12:18;99447.59;;;32.43;54.54
60258;BME280;46115;44.484;11.314;2023-07-20T17:16:22;99441.78;;;32.40;55.18
60258;BME280;46115;44.484;11.314;2023-07-20T17:20:24;99436.47;;;32.33;56.33
60258;BME280;46115;44.484;11.314;2023-07-20T17:24:26;99446.09;;;32.36;56.88
60258;BME280;46115;44.484;11.314;2023-07-20T17:28:29;99436.47;;;32.33;57.51
60258;BME280;46115;44.484;11.314;2023-07-20T17:32:33;99418.41;;;31.85;58.49
60258;BME280;46115;44.484;11.314;2023-07-20T17:36:35;99434.66;;;31.57;59.40
60258;BME280;46115;44.484;11.314;2023-07-20T17:40:38;99430.66;;;31.83;59.26
60258;BME280;46115;44.484;11.314;2023-07-20T17:44:40;99432.44;;;31.77;59.04
60258;BME280;46115;44.484;11.314;2023-07-20T17:48:44;99421.84;;;31.57;59.84
60258;BME280;46115;44.484;11.314;2023-07-20T17:52:46;99428.75;;;31.60;59.88
60258;BME280;46115;44.484;11.314;2023-07-20T17:56:49;99431.63;;;31.77;59.29
60258;BME280;46115;44.484;11.314;2023-07-20T18:00:51;99418.91;;;31.71;59.45
60258;BME280;46115;44.484;11.314;2023-07-20T18:04:55;99433.00;;;31.68;59.60
60258;BME280;46115;44.484;11.314;2023-07-20T18:08:57;99427.53;;;31.56;59.83
60258;BME280;46115;44.484;11.314;2023-07-20T18:13:00;99426.63;;;31.85;59.41
60258;BME280;46115;44.484;11.314;2023-07-20T18:17:02;99426.22;;;31.47;60.58
60258;BME280;46115;44.484;11.314;2023-07-20T18:21:06;99422.44;;;31.59;60.42
60258;BME280;46115;44.484;11.314;2023-07-20T18:25:09;99424.69;;;31.51;60.87
60258;BME280;46115;44.484;11.314;2023-07-20T18:29:11;99423.88;;;31.09;62.38
60258;BME280;46115;44.484;11.314;2023-07-20T18:33:13;99422.28;;;31.31;62.14
60258;BME280;46115;44.484;11.314;2023-07-20T18:37:17;99431.31;;;31.31;62.20
60258;BME280;46115;44.484;11.314;2023-07-20T18:41:21;99429.63;;;30.89;63.75
60258;BME280;46115;44.484;11.314;2023-07-20T18:45:24;99424.78;;;30.61;64.92
60258;BME280;46115;44.484;11.314;2023-07-20T18:49:26;99420.44;;;30.71;64.46
60258;BME280;46115;44.484;11.314;2023-07-20T18:53:31;99419.63;;;30.83;64.57
60258;BME280;46115;44.484;11.314;2023-07-20T18:57:34;99418.94;;;30.39;66.02
60258;BME280;46115;44.484;11.314;2023-07-20T19:01:37;99428.25;;;30.68;65.02
60258;BME280;46115;44.484;11.314;2023-07-20T19:05:39;99429.25;;;30.37;66.40
60258;BME280;46115;44.484;11.314;2023-07-20T19:09:47;99428.72;;;30.28;66.87
60258;BME280;46115;44.484;11.314;2023-07-20T19:13:49;99435.59;;;30.31;66.98
60258;BME280;46115;44.484;11.314;2023-07-20T19:17:51;99435.53;;;30.37;66.99
60258;BME280;46115;44.484;11.314;2023-07-20T19:21:54;99438.06;;;29.96;68.62
60258;BME280;46115;44.484;11.314;2023-07-20T19:25:57;99455.72;;;30.48;66.63
60258;BME280;46115;44.484;11.314;2023-07-20T19:30:00;99457.41;;;30.67;65.85
60258;BME280;46115;44.484;11.314;2023-07-20T19:34:02;99459.41;;;30.90;65.00
60258;BME280;46115;44.484;11.314;2023-07-20T19:38:05;99459.25;;;30.19;67.76
60258;BME280;46115;44.484;11.314;2023-07-20T19:42:08;99467.00;;;30.15;67.53
60258;BME280;46115;44.484;11.314;2023-07-20T22:06:08;99501.00;;;29.00;44.20
60258;BME280;46115;44.484;11.314;2023-07-20T22:10:10;99501.25;;;28.92;43.39
60258;BME280;46115;44.484;11.314;2023-07-20T22:14:13;99495.38;;;28.95;44.02
60258;BME280;46115;44.484;11.314;2023-07-20T22:18:16;99490.13;;;29.00;43.50
60258;BME280;46115;44.484;11.314;2023-07-20T22:22:20;99486.84;;;28.84;43.82
60258;BME280;46115;44.484;11.314;2023-07-20T22:26:22;99488.31;;;28.87;43.84
60258;BME280;46115;44.484;11.314;2023-07-20T22:30:25;99492.91;;;28.86;43.53
60258;BME280;46115;44.484;11.314;2023-07-20T22:34:28;99499.31;;;28.99;43.38
60258;BME280;46115;44.484;11.314;2023-07-20T22:38:32;99510.28;;;28.85;43.69
60258;BME280;46115;44.484;11.314;2023-07-20T22:42:35;99504.03;;;28.72;43.73
60258;BME280;46115;44.484;11.314;2023-07-20T22:46:38;99519.69;;;28.90;43.69
60258;BME280;46115;44.484;11.314;2023-07-20T22:50:41;99522.03;;;28.66;43.63
60258;BME280;46115;44.484;11.314;2023-07-20T22:54:47;99518.03;;;28.75;43.66
60258;BME280;46115;44.484;11.314;2023-07-20T22:58:49;99522.09;;;28.53;44.27
60258;BME280;46115;44.484;11.314;2023-07-20T23:02:52;99525.66;;;28.53;44.55
60258;BME280;46115;44.484;11.314;2023-07-20T23:06:55;99519.09;;;28.68;44.26
60258;BME280;46115;44.484;11.314;2023-07-20T23:10:59;99518.63;;;28.77;43.87
60258;BME280;46115;44.484;11.314;2023-07-20T23:15:01;99525.47;;;28.48;43.75
60258;BME280;46115;44.484;11.314;2023-07-20T23:19:04;99529.34;;;28.72;42.28
60258;BME280;46115;44.484;11.314;2023-07-20T23:23:07;99523.94;;;28.66;41.42
60258;BME280;46115;44.484;11.314;2023-07-20T23:27:11;99524.19;;;28.44;41.56
60258;BME280;46115;44.484;11.314;2023-07-20T23:31:13;99518.13;;;28.55;41.32
60258;BME280;46115;44.484;11.314;2023-07-20T23:35:16;99508.53;;;28.40;41.86